Time;durP1;ratioP1;P1;durP2;ratioP2;P2;SDS_P1;SDS_P2;PMS_P1;PMS_P2;Temp;Humidity;BMP_temperature;BMP_pressure;BME280_temperature;BME280_humidity;BME280_pressure;Samples;Min_cycle;Max_cycle;Signal;HPM_P1;HPM_P2
2023/09/26 00:07:48;;;;;;;;;;;12.10;99.90;;;;;;6681700;88;20064;-78
2023/09/26 00:17:50;;;;;;;;;;;12.00;99.90;;;;;;6675826;88;20107;-78
2023/09/26 00:27:51;;;;;;;;;;;11.90;99.90;;;;;;6679664;88;20081;-78
2023/09/26 00:37:52;;;;;;;;;;;12.00;99.90;;;;;;6679730;88;20581;-77
2023/09/26 00:47:53;;;;;;;;;;;11.80;99.90;;;;;;6676146;88;20649;-77
2023/09/26 00:57:54;;;;;;;;;;;11.60;99.90;;;;;;6672932;88;20082;-76
2023/09/26 01:07:55;;;;;;;;;;;11.60;99.90;;;;;;6676352;88;21559;-78
2023/09/26 01:17:55;;;;;;;;;;;11.40;99.90;;;;;;6677282;88;20117;-77
2023/09/26 01:28:01;;;;;;;;;;;11.50;99.90;;;;;;6677020;88;20099;-77
2023/09/26 01:38:01;;;;;;;;;;;11.40;99.90;;;;;;6672177;88;20060;-77
2023/09/26 01:48:05;;;;;;;;;;;11.30;99.90;;;;;;6676857;88;20069;-77
2023/09/26 01:58:05;;;;;;;;;;;11.20;99.90;;;;;;6675731;88;20077;-78
2023/09/26 02:08:06;;;;;;;;;;;11.20;99.90;;;;;;6686180;88;20524;-78
2023/09/26 02:18:06;;;;;;;;;;;11.10;99.90;;;;;;6675175;88;20270;-77
2023/09/26 02:28:07;;;;;;;;;;;11.00;99.90;;;;;;6684879;88;20079;-78
2023/09/26 02:38:08;;;;;;;;;;;11.00;99.90;;;;;;6682197;88;20100;-78
2023/09/26 02:48:08;;;;;;;;;;;10.80;99.90;;;;;;6677257;88;20061;-79
2023/09/26 02:58:09;;;;;;;;;;;10.80;99.90;;;;;;6677697;88;20545;-79
2023/09/26 03:19:11;;;;;;;;;;;10.70;99.90;;;;;;6709498;88;20063;-79
2023/09/26 03:29:12;;;;;;;;;;;10.60;99.90;;;;;;6726571;88;20059;-79
2023/09/26 03:39:13;;;;;;;;;;;10.60;99.90;;;;;;6732280;88;20105;-79
2023/09/26 03:49:13;;;;;;;;;;;10.40;99.90;;;;;;6718274;88;20096;-79
2023/09/26 03:59:15;;;;;;;;;;;10.30;99.90;;;;;;6712245;88;20084;-79
2023/09/26 04:09:16;;;;;;;;;;;10.10;99.90;;;;;;6728436;88;20041;-80
2023/09/26 04:19:17;;;;;;;;;;;10.00;99.90;;;;;;6728379;88;22157;-79
2023/09/26 04:29:17;;;;;;;;;;;9.90;99.90;;;;;;6728770;88;20569;-83
2023/09/26 04:39:18;;;;;;;;;;;10.10;99.90;;;;;;6726411;88;20076;-81
2023/09/26 04:49:18;;;;;;;;;;;10.00;99.90;;;;;;6716412;88;20059;-80
2023/09/26 04:59:19;;;;;;;;;;;9.90;99.90;;;;;;6712643;88;20107;-81
2023/09/26 05:09:21;;;;;;;;;;;9.70;99.90;;;;;;6712436;88;20513;-81
2023/09/26 05:19:21;;;;;;;;;;;9.80;99.90;;;;;;6713295;88;20067;-81
2023/09/26 05:29:22;;;;;;;;;;;9.80;99.90;;;;;;6712474;88;20527;-81
2023/09/26 05:39:22;;;;;;;;;;;9.80;99.90;;;;;;6708960;88;20071;-80
2023/09/26 05:49:22;;;;;;;;;;;9.90;99.90;;;;;;6708356;88;20214;-80
2023/09/26 05:59:23;;;;;;;;;;;10.00;99.90;;;;;;6712555;88;20058;-79
2023/09/26 06:09:23;;;;;;;;;;;10.10;99.90;;;;;;6711275;88;20066;-80
2023/09/26 06:19:24;;;;;;;;;;;10.50;99.90;;;;;;6715599;88;20691;-80
2023/09/26 06:29:24;;;;;;;;;;;10.70;99.90;;;;;;6723192;88;20509;-78
2023/09/26 06:39:25;;;;;;;;;;;11.00;99.90;;;;;;6727408;88;20134;-80
2023/09/26 06:49:25;;;;;;;;;;;11.40;99.90;;;;;;6737954;88;20075;-79
2023/09/26 06:59:26;;;;;;;;;;;11.80;99.90;;;;;;6735703;88;20164;-79
2023/09/26 07:09:26;;;;;;;;;;;12.20;99.90;;;;;;6737188;88;20066;-80
2023/09/26 07:19:31;;;;;;;;;;;12.60;99.90;;;;;;6727971;88;20059;-80
2023/09/26 07:29:31;;;;;;;;;;;13.20;99.90;;;;;;6728908;88;20561;-80
2023/09/26 07:39:32;;;;;;;;;;;13.50;99.90;;;;;;6731022;88;20067;-79
2023/09/26 07:49:32;;;;;;;;;;;14.30;99.90;;;;;;6737585;88;20066;-80
2023/09/26 07:59:34;;;;;;;;;;;15.20;99.90;;;;;;6728258;88;20077;-79
2023/09/26 08:09:34;;;;;;;;;;;16.70;99.90;;;;;;6717936;88;20067;-80
2023/09/26 08:19:36;;;;;;;;;;;17.70;99.90;;;;;;6722699;88;20494;-79
2023/09/26 08:29:36;;;;;;;;;;;19.00;99.90;;;;;;6724473;88;20070;-80
2023/09/26 08:39:37;;;;;;;;;;;18.60;99.90;;;;;;6725558;88;20565;-80
2023/09/26 08:49:39;;;;;;;;;;;18.90;99.90;;;;;;6723619;88;20398;-80
2023/09/26 08:59:42;;;;;;;;;;;19.20;99.90;;;;;;6735323;88;20402;-80
2023/09/26 09:20:31;;;;;;;;;;;19.70;99.90;;;;;;6719964;88;20073;-81
2023/09/26 09:30:38;;;;;;;;;;;20.30;99.90;;;;;;6714130;88;20121;-81
2023/09/26 09:40:39;;;;;;;;;;;20.60;99.90;;;;;;6708758;88;20062;-82
2023/09/26 09:50:41;;;;;;;;;;;21.20;99.90;;;;;;6712523;88;20123;-81
2023/09/26 10:00:41;;;;;;;;;;;21.60;99.90;;;;;;6713561;88;20060;-83
2023/09/26 10:10:43;;;;;;;;;;;22.20;99.90;;;;;;6714044;88;20141;-82
2023/09/26 10:20:46;;;;;;;;;;;22.00;99.90;;;;;;6721368;88;20148;-80
2023/09/26 10:30:53;;;;;;;;;;;23.30;99.90;;;;;;6716478;88;20051;-81
2023/09/26 10:40:55;;;;;;;;;;;23.20;99.90;;;;;;6715968;88;20579;-81
2023/09/26 10:50:56;;;;;;;;;;;23.30;99.90;;;;;;6719529;88;20561;-82
2023/09/26 11:00:57;;;;;;;;;;;24.20;99.90;;;;;;6718125;88;20074;-83
2023/09/26 11:10:58;;;;;;;;;;;24.20;99.90;;;;;;6720315;88;20071;-83
2023/09/26 11:21:00;;;;;;;;;;;24.10;99.90;;;;;;6722670;88;20075;-82
2023/09/26 11:31:00;;;;;;;;;;;23.80;99.90;;;;;;6721636;88;20076;-81
2023/09/26 11:41:02;;;;;;;;;;;24.60;99.90;;;;;;6718689;88;20102;-80
2023/09/26 11:51:03;;;;;;;;;;;25.10;99.90;;;;;;6721721;88;20064;-82
2023/09/26 12:01:04;;;;;;;;;;;26.50;98.70;;;;;;6718746;88;20601;-83
2023/09/26 12:11:05;;;;;;;;;;;26.10;98.30;;;;;;6702943;88;20028;-83
2023/09/26 12:21:05;;;;;;;;;;;26.10;98.00;;;;;;6712383;88;20071;-83
2023/09/26 12:31:06;;;;;;;;;;;26.30;97.30;;;;;;6709133;88;20085;-82
2023/09/26 12:41:07;;;;;;;;;;;26.30;97.40;;;;;;6707279;88;20088;-83
2023/09/26 12:51:07;;;;;;;;;;;26.30;97.30;;;;;;6704623;88;20486;-82
2023/09/26 13:01:07;;;;;;;;;;;26.20;97.10;;;;;;6701641;88;20079;-82
2023/09/26 13:11:08;;;;;;;;;;;26.10;97.50;;;;;;6701596;88;20174;-82
2023/09/26 13:21:08;;;;;;;;;;;26.60;97.40;;;;;;6704035;88;20069;-82
2023/09/26 13:31:09;;;;;;;;;;;26.50;97.00;;;;;;6703255;88;20044;-82
2023/09/26 13:41:09;;;;;;;;;;;26.60;97.50;;;;;;6701325;88;20066;-82
2023/09/26 13:51:10;;;;;;;;;;;27.00;96.60;;;;;;6700357;88;20112;-82
2023/09/26 14:01:10;;;;;;;;;;;27.50;96.50;;;;;;6704237;88;20065;-84
2023/09/26 14:11:11;;;;;;;;;;;27.40;97.10;;;;;;6705273;88;20081;-82
2023/09/26 14:21:14;;;;;;;;;;;26.80;97.30;;;;;;6703534;88;20085;-83
2023/09/26 14:31:19;;;;;;;;;;;26.40;97.80;;;;;;6702928;88;20074;-82
2023/09/26 14:41:19;;;;;;;;;;;26.20;97.90;;;;;;6718068;88;20071;-82
2023/09/26 14:51:21;;;;;;;;;;;25.70;98.50;;;;;;6710285;88;20067;-80
2023/09/26 15:01:22;;;;;;;;;;;25.80;99.00;;;;;;6710561;78;20085;-76
2023/09/26 15:11:22;;;;;;;;;;;25.80;98.90;;;;;;6729096;88;20070;-76
2023/09/26 15:21:24;;;;;;;;;;;26.20;98.80;;;;;;6714481;88;20070;-77
2023/09/26 15:31:25;;;;;;;;;;;25.20;99.10;;;;;;6712593;88;20062;-77
2023/09/26 15:41:25;;;;;;;;;;;24.80;99.70;;;;;;6718733;88;20590;-75
2023/09/26 15:51:26;;;;;;;;;;;24.60;99.90;;;;;;6719077;88;20071;-76
2023/09/26 16:01:26;;;;;;;;;;;24.40;99.90;;;;;;6728506;88;20163;-77
2023/09/26 16:11:27;;;;;;;;;;;24.10;99.90;;;;;;6693211;88;20387;-77
2023/09/26 16:21:27;;;;;;;;;;;23.90;99.90;;;;;;6699092;88;20742;-77
2023/09/26 16:31:28;;;;;;;;;;;23.60;99.90;;;;;;6648005;88;20175;-76
2023/09/26 16:41:28;;;;;;;;;;;23.30;99.90;;;;;;6700095;88;20574;-77
2023/09/26 16:51:29;;;;;;;;;;;22.90;99.90;;;;;;6700631;88;20091;-80
2023/09/26 17:01:29;;;;;;;;;;;22.50;99.90;;;;;;6702181;88;20300;-80
2023/09/26 17:11:30;;;;;;;;;;;22.10;99.90;;;;;;6723752;88;20242;-80
2023/09/26 17:21:30;;;;;;;;;;;21.80;99.90;;;;;;6724034;88;20055;-79
2023/09/26 17:31:31;;;;;;;;;;;21.50;99.90;;;;;;6729197;88;20088;-79
2023/09/26 17:41:31;;;;;;;;;;;21.30;99.90;;;;;;6729691;88;20187;-79
2023/09/26 17:51:32;;;;;;;;;;;21.20;99.90;;;;;;6722242;88;20216;-79
2023/09/26 18:01:32;;;;;;;;;;;21.00;99.90;;;;;;6729220;88;20065;-80
2023/09/26 18:11:33;;;;;;;;;;;20.80;99.90;;;;;;6726363;88;20063;-81
2023/09/26 18:21:33;;;;;;;;;;;20.30;99.90;;;;;;6724574;88;20868;-80
2023/09/26 18:31:34;;;;;;;;;;;20.00;99.90;;;;;;6725360;88;20593;-80
2023/09/26 18:41:35;;;;;;;;;;;19.80;99.90;;;;;;6729200;88;20076;-80
2023/09/26 18:51:36;;;;;;;;;;;19.90;99.90;;;;;;6692179;88;20144;-80
2023/09/26 19:01:36;;;;;;;;;;;19.90;99.90;;;;;;6726037;88;20164;-80
2023/09/26 19:11:42;;;;;;;;;;;19.90;99.90;;;;;;6715507;88;20169;-81
2023/09/26 19:21:42;;;;;;;;;;;19.60;99.90;;;;;;6706838;88;20056;-80
2023/09/26 19:31:43;;;;;;;;;;;19.50;99.90;;;;;;6708416;88;20063;-80
2023/09/26 19:41:43;;;;;;;;;;;19.20;99.90;;;;;;6705590;88;20080;-80
2023/09/26 19:51:43;;;;;;;;;;;19.10;99.90;;;;;;6705708;88;20064;-80
2023/09/26 20:01:45;;;;;;;;;;;18.70;99.90;;;;;;6708342;88;20165;-81
2023/09/26 20:11:45;;;;;;;;;;;18.50;99.90;;;;;;6705393;88;20056;-81
2023/09/26 20:21:45;;;;;;;;;;;18.30;99.90;;;;;;6708735;88;20084;-81
2023/09/26 20:31:46;;;;;;;;;;;18.30;99.90;;;;;;6694220;88;20139;-81
2023/09/26 20:41:46;;;;;;;;;;;18.40;99.90;;;;;;6683646;88;20060;-80
2023/09/26 20:51:47;;;;;;;;;;;18.20;99.90;;;;;;6706812;88;20256;-81
2023/09/26 21:01:47;;;;;;;;;;;18.10;99.90;;;;;;6706306;88;20122;-81
2023/09/26 21:11:48;;;;;;;;;;;17.90;99.90;;;;;;6698024;88;21443;-81
2023/09/26 21:21:48;;;;;;;;;;;17.60;99.90;;;;;;6709378;88;20518;-81
2023/09/26 21:31:49;;;;;;;;;;;17.40;99.90;;;;;;6715724;88;20122;-81
2023/09/26 21:41:50;;;;;;;;;;;17.40;99.90;;;;;;6709290;88;20772;-80
2023/09/26 21:51:53;;;;;;;;;;;17.20;99.90;;;;;;6716589;88;20077;-79
2023/09/26 22:01:55;;;;;;;;;;;16.90;99.90;;;;;;6704972;88;20076;-79
2023/09/26 22:11:57;;;;;;;;;;;16.70;99.90;;;;;;6701637;88;20170;-79
2023/09/26 22:21:58;;;;;;;;;;;16.50;99.90;;;;;;6697723;88;20440;-79
2023/09/26 22:32:00;;;;;;;;;;;16.40;99.90;;;;;;6708933;88;20203;-79
2023/09/26 22:42:01;;;;;;;;;;;16.20;99.90;;;;;;6707309;88;20055;-79
2023/09/26 22:52:02;;;;;;;;;;;16.30;99.90;;;;;;6709583;88;20052;-79
2023/09/26 23:02:08;;;;;;;;;;;16.00;99.90;;;;;;6713503;88;20623;-80
2023/09/26 23:12:10;;;;;;;;;;;15.80;99.90;;;;;;6703251;88;20645;-80
2023/09/26 23:22:11;;;;;;;;;;;15.70;99.90;;;;;;6711348;88;20059;-79
2023/09/26 23:32:12;;;;;;;;;;;15.50;99.90;;;;;;6708530;88;20480;-79
2023/09/26 23:42:12;;;;;;;;;;;15.50;99.90;;;;;;6699675;88;20057;-80
2023/09/26 23:52:16;;;;;;;;;;;15.40;99.90;;;;;;6704478;88;20054;-80
